Shady Nook, Indiana
Current Conditions -  °F | °C
As of 3:55 PM on Friday 21 Nov 2014 (Local Time) from KANQ Reporting Station
Clear Clear  
Wind Chill: 18°   Ceiling: Unl
Heat Index: 27°   Visibility: 10mi
Dew Point: 12°   Wind: 8mph
Humidity: 55%   Direction: 180°S
Pressure: 30.4"   Gusts: NA
Location:  41.5677°N, 85.3125°W
Report Text: KANQ 212055Z AUTO 18007KT 10SM CLR M03/M11 A3040 RMK
Loading
Personal Weather Stations






























Interactive Weather Map New forecast layout! Learn more

10-Day Weather Forecast

Advertisements
Track Severe Weather on mobile